sensor_id;sensor_type;location;lat;lon;timestamp;P1;durP1;ratioP1;P2;durP2;ratioP2
23115;SDS011;11727;52.134;5.052;2023-02-28T00:00:20;1.42;;;0.90;;
23115;SDS011;11727;52.134;5.052;2023-02-28T00:02:46;2.80;;;1.08;;
23115;SDS011;11727;52.134;5.052;2023-02-28T00:05:13;6.47;;;0.88;;
23115;SDS011;11727;52.134;5.052;2023-02-28T00:07:41;3.15;;;1.33;;
23115;SDS011;11727;52.134;5.052;2023-02-28T00:10:09;1.00;;;0.70;;
23115;SDS011;11727;52.134;5.052;2023-02-28T00:12:36;2.08;;;0.60;;
23115;SDS011;11727;52.134;5.052;2023-02-28T00:15:05;2.53;;;0.85;;
23115;SDS011;11727;52.134;5.052;2023-02-28T00:17:35;4.10;;;1.10;;
23115;SDS011;11727;52.134;5.052;2023-02-28T00:20:02;4.03;;;0.68;;
23115;SDS011;11727;52.134;5.052;2023-02-28T00:22:35;2.33;;;0.63;;
23115;SDS011;11727;52.134;5.052;2023-02-28T00:25:02;2.13;;;0.60;;
23115;SDS011;11727;52.134;5.052;2023-02-28T00:27:29;0.90;;;0.57;;
23115;SDS011;11727;52.134;5.052;2023-02-28T00:29:54;0.90;;;0.43;;
23115;SDS011;11727;52.134;5.052;2023-02-28T00:32:20;2.17;;;1.13;;
23115;SDS011;11727;52.134;5.052;2023-02-28T00:34:46;1.80;;;0.70;;
23115;SDS011;11727;52.134;5.052;2023-02-28T00:37:12;3.13;;;0.75;;
23115;SDS011;11727;52.134;5.052;2023-02-28T00:39:38;3.72;;;1.38;;
23115;SDS011;11727;52.134;5.052;2023-02-28T00:42:04;1.23;;;0.70;;
23115;SDS011;11727;52.134;5.052;2023-02-28T00:44:30;1.70;;;0.60;;
23115;SDS011;11727;52.134;5.052;2023-02-28T00:46:56;3.85;;;1.30;;
23115;SDS011;11727;52.134;5.052;2023-02-28T00:49:23;10.63;;;0.88;;
23115;SDS011;11727;52.134;5.052;2023-02-28T00:51:49;1.67;;;0.63;;
23115;SDS011;11727;52.134;5.052;2023-02-28T00:54:15;3.00;;;0.85;;
23115;SDS011;11727;52.134;5.052;2023-02-28T00:56:41;3.22;;;0.68;;
23115;SDS011;11727;52.134;5.052;2023-02-28T00:59:07;2.22;;;0.85;;
23115;SDS011;11727;52.134;5.052;2023-02-28T01:01:33;6.35;;;1.23;;
23115;SDS011;11727;52.134;5.052;2023-02-28T01:03:59;2.25;;;0.70;;
23115;SDS011;11727;52.134;5.052;2023-02-28T01:06:24;4.88;;;0.70;;
23115;SDS011;11727;52.134;5.052;2023-02-28T01:08:50;4.88;;;0.85;;
23115;SDS011;11727;52.134;5.052;2023-02-28T01:11:16;2.83;;;0.60;;
23115;SDS011;11727;52.134;5.052;2023-02-28T01:13:43;4.25;;;0.85;;
23115;SDS011;11727;52.134;5.052;2023-02-28T01:16:09;2.15;;;0.70;;
23115;SDS011;11727;52.134;5.052;2023-02-28T01:18:35;2.45;;;0.68;;
23115;SDS011;11727;52.134;5.052;2023-02-28T01:21:09;2.87;;;0.77;;
23115;SDS011;11727;52.134;5.052;2023-02-28T01:23:37;2.75;;;0.80;;
23115;SDS011;11727;52.134;5.052;2023-02-28T01:26:07;3.10;;;1.02;;
23115;SDS011;11727;52.134;5.052;2023-02-28T01:28:34;0.85;;;0.50;;
23115;SDS011;11727;52.134;5.052;2023-02-28T01:31:00;1.30;;;0.60;;
23115;SDS011;11727;52.134;5.052;2023-02-28T01:33:25;2.28;;;0.88;;
23115;SDS011;11727;52.134;5.052;2023-02-28T01:36:01;1.77;;;0.60;;
23115;SDS011;11727;52.134;5.052;2023-02-28T01:38:28;4.93;;;0.95;;
23115;SDS011;11727;52.134;5.052;2023-02-28T01:40:54;5.88;;;0.63;;
23115;SDS011;11727;52.134;5.052;2023-02-28T01:43:27;2.00;;;1.05;;
23115;SDS011;11727;52.134;5.052;2023-02-28T01:45:55;1.92;;;0.75;;
23115;SDS011;11727;52.134;5.052;2023-02-28T01:48:24;3.63;;;0.90;;
23115;SDS011;11727;52.134;5.052;2023-02-28T01:50:52;3.10;;;0.70;;
23115;SDS011;11727;52.134;5.052;2023-02-28T01:53:21;5.60;;;1.15;;
23115;SDS011;11727;52.134;5.052;2023-02-28T01:55:53;3.42;;;0.70;;
23115;SDS011;11727;52.134;5.052;2023-02-28T01:58:20;6.70;;;1.27;;
23115;SDS011;11727;52.134;5.052;2023-02-28T02:00:46;3.78;;;1.08;;
23115;SDS011;11727;52.134;5.052;2023-02-28T02:03:13;3.03;;;1.00;;
23115;SDS011;11727;52.134;5.052;2023-02-28T02:05:43;3.15;;;0.93;;
23115;SDS011;11727;52.134;5.052;2023-02-28T02:08:13;2.33;;;0.80;;
23115;SDS011;11727;52.134;5.052;2023-02-28T02:10:46;3.00;;;0.80;;
23115;SDS011;11727;52.134;5.052;2023-02-28T02:18:46;1.35;;;0.60;;
23115;SDS011;11727;52.134;5.052;2023-02-28T02:27:06;1.50;;;0.55;;
23115;SDS011;11727;52.134;5.052;2023-02-28T02:32:40;1.75;;;0.55;;
23115;SDS011;11727;52.134;5.052;2023-02-28T02:35:14;1.73;;;0.77;;
23115;SDS011;11727;52.134;5.052;2023-02-28T02:37:52;3.17;;;1.35;;
23115;SDS011;11727;52.134;5.052;2023-02-28T02:40:27;1.85;;;0.70;;
23115;SDS011;11727;52.134;5.052;2023-02-28T02:45:51;4.43;;;0.80;;
23115;SDS011;11727;52.134;5.052;2023-02-28T02:48:21;8.07;;;0.75;;
23115;SDS011;11727;52.134;5.052;2023-02-28T02:50:53;1.63;;;0.65;;
23115;SDS011;11727;52.134;5.052;2023-02-28T02:53:22;2.65;;;1.10;;
23115;SDS011;11727;52.134;5.052;2023-02-28T02:55:54;3.65;;;1.10;;
23115;SDS011;11727;52.134;5.052;2023-02-28T02:58:24;3.90;;;1.00;;
23115;SDS011;11727;52.134;5.052;2023-02-28T03:00:54;2.08;;;0.90;;
23115;SDS011;11727;52.134;5.052;2023-02-28T03:03:24;5.38;;;0.80;;
23115;SDS011;11727;52.134;5.052;2023-02-28T03:05:54;1.60;;;0.88;;
23115;SDS011;11727;52.134;5.052;2023-02-28T03:08:22;2.55;;;0.90;;
23115;SDS011;11727;52.134;5.052;2023-02-28T03:10:51;2.50;;;0.95;;
23115;SDS011;11727;52.134;5.052;2023-02-28T03:27:06;6.15;;;0.90;;
23115;SDS011;11727;52.134;5.052;2023-02-28T03:29:50;2.08;;;1.02;;
23115;SDS011;11727;52.134;5.052;2023-02-28T03:35:07;4.40;;;1.00;;
23115;SDS011;11727;52.134;5.052;2023-02-28T03:37:46;2.78;;;1.05;;
23115;SDS011;11727;52.134;5.052;2023-02-28T03:40:21;6.28;;;1.00;;
23115;SDS011;11727;52.134;5.052;2023-02-28T03:42:52;3.55;;;0.98;;
23115;SDS011;11727;52.134;5.052;2023-02-28T03:45:24;3.45;;;0.98;;
23115;SDS011;11727;52.134;5.052;2023-02-28T03:47:54;2.55;;;0.77;;
23115;SDS011;11727;52.134;5.052;2023-02-28T03:50:29;3.40;;;1.27;;
23115;SDS011;11727;52.134;5.052;2023-02-28T03:53:17;2.38;;;1.10;;
23115;SDS011;11727;52.134;5.052;2023-02-28T03:55:52;3.42;;;1.20;;
23115;SDS011;11727;52.134;5.052;2023-02-28T03:58:26;2.55;;;1.27;;
23115;SDS011;11727;52.134;5.052;2023-02-28T04:01:35;4.85;;;1.40;;
23115;SDS011;11727;52.134;5.052;2023-02-28T04:04:10;3.97;;;1.27;;
23115;SDS011;11727;52.134;5.052;2023-02-28T04:06:37;2.42;;;1.17;;
23115;SDS011;11727;52.134;5.052;2023-02-28T04:09:03;2.70;;;1.00;;
23115;SDS011;11727;52.134;5.052;2023-02-28T04:11:32;4.75;;;1.52;;
23115;SDS011;11727;52.134;5.052;2023-02-28T04:14:10;2.92;;;1.25;;
23115;SDS011;11727;52.134;5.052;2023-02-28T04:16:37;6.40;;;1.33;;
23115;SDS011;11727;52.134;5.052;2023-02-28T04:19:05;3.25;;;1.40;;
23115;SDS011;11727;52.134;5.052;2023-02-28T04:21:36;3.45;;;1.80;;
23115;SDS011;11727;52.134;5.052;2023-02-28T04:24:06;3.83;;;1.30;;
23115;SDS011;11727;52.134;5.052;2023-02-28T04:26:33;5.75;;;1.27;;
23115;SDS011;11727;52.134;5.052;2023-02-28T04:29:00;7.57;;;1.50;;
23115;SDS011;11727;52.134;5.052;2023-02-28T04:33:53;4.97;;;1.00;;
23115;SDS011;11727;52.134;5.052;2023-02-28T04:36:19;2.78;;;1.33;;
23115;SDS011;11727;52.134;5.052;2023-02-28T04:38:45;4.68;;;1.85;;
23115;SDS011;11727;52.134;5.052;2023-02-28T04:41:14;5.63;;;1.70;;
23115;SDS011;11727;52.134;5.052;2023-02-28T04:43:41;6.93;;;2.20;;
23115;SDS011;11727;52.134;5.052;2023-02-28T04:46:07;9.32;;;2.67;;
23115;SDS011;11727;52.134;5.052;2023-02-28T04:48:34;8.80;;;2.30;;
23115;SDS011;11727;52.134;5.052;2023-02-28T04:51:06;9.75;;;2.78;;
23115;SDS011;11727;52.134;5.052;2023-02-28T04:53:33;7.68;;;1.67;;
23115;SDS011;11727;52.134;5.052;2023-02-28T04:56:00;10.68;;;3.35;;
23115;SDS011;11727;52.134;5.052;2023-02-28T04:58:26;6.72;;;2.35;;
23115;SDS011;11727;52.134;5.052;2023-02-28T05:00:53;6.38;;;2.72;;
23115;SDS011;11727;52.134;5.052;2023-02-28T05:03:19;4.22;;;2.10;;
23115;SDS011;11727;52.134;5.052;2023-02-28T05:08:12;6.68;;;1.75;;
23115;SDS011;11727;52.134;5.052;2023-02-28T05:10:38;6.97;;;2.53;;
23115;SDS011;11727;52.134;5.052;2023-02-28T05:13:04;4.00;;;1.95;;
23115;SDS011;11727;52.134;5.052;2023-02-28T05:15:29;3.53;;;1.77;;
23115;SDS011;11727;52.134;5.052;2023-02-28T05:17:55;3.05;;;1.58;;
23115;SDS011;11727;52.134;5.052;2023-02-28T05:20:21;6.35;;;1.63;;
23115;SDS011;11727;52.134;5.052;2023-02-28T05:22:47;3.30;;;1.55;;
23115;SDS011;11727;52.134;5.052;2023-02-28T05:25:18;3.83;;;1.80;;
23115;SDS011;11727;52.134;5.052;2023-02-28T05:27:45;5.38;;;1.38;;
23115;SDS011;11727;52.134;5.052;2023-02-28T05:30:11;5.00;;;1.30;;
23115;SDS011;11727;52.134;5.052;2023-02-28T05:32:37;7.25;;;1.63;;
23115;SDS011;11727;52.134;5.052;2023-02-28T05:35:03;3.35;;;1.33;;
23115;SDS011;11727;52.134;5.052;2023-02-28T05:37:30;3.43;;;1.63;;
23115;SDS011;11727;52.134;5.052;2023-02-28T05:39:55;3.00;;;1.40;;
23115;SDS011;11727;52.134;5.052;2023-02-28T05:42:21;2.67;;;1.40;;
23115;SDS011;11727;52.134;5.052;2023-02-28T05:44:47;3.03;;;1.27;;
23115;SDS011;11727;52.134;5.052;2023-02-28T05:47:12;3.25;;;1.20;;
23115;SDS011;11727;52.134;5.052;2023-02-28T05:49:40;2.88;;;1.40;;
23115;SDS011;11727;52.134;5.052;2023-02-28T05:52:06;3.60;;;1.13;;
23115;SDS011;11727;52.134;5.052;2023-02-28T05:54:32;2.50;;;0.75;;
23115;SDS011;11727;52.134;5.052;2023-02-28T05:56:58;4.47;;;1.10;;
23115;SDS011;11727;52.134;5.052;2023-02-28T05:59:23;4.95;;;1.23;;
23115;SDS011;11727;52.134;5.052;2023-02-28T06:01:49;2.72;;;1.23;;
23115;SDS011;11727;52.134;5.052;2023-02-28T06:04:15;4.10;;;1.30;;
23115;SDS011;11727;52.134;5.052;2023-02-28T06:06:46;8.68;;;1.25;;
23115;SDS011;11727;52.134;5.052;2023-02-28T06:09:14;2.15;;;1.20;;
23115;SDS011;11727;52.134;5.052;2023-02-28T06:11:40;3.03;;;1.20;;
23115;SDS011;11727;52.134;5.052;2023-02-28T06:14:06;1.90;;;1.02;;
23115;SDS011;11727;52.134;5.052;2023-02-28T06:16:37;3.42;;;1.10;;
23115;SDS011;11727;52.134;5.052;2023-02-28T06:19:03;2.53;;;1.13;;
23115;SDS011;11727;52.134;5.052;2023-02-28T06:21:29;5.35;;;1.50;;
23115;SDS011;11727;52.134;5.052;2023-02-28T06:23:55;5.97;;;1.67;;
23115;SDS011;11727;52.134;5.052;2023-02-28T06:26:22;5.05;;;1.75;;
23115;SDS011;11727;52.134;5.052;2023-02-28T06:28:48;7.82;;;1.17;;
23115;SDS011;11727;52.134;5.052;2023-02-28T06:31:15;2.65;;;1.20;;
23115;SDS011;11727;52.134;5.052;2023-02-28T06:33:42;3.88;;;1.58;;
23115;SDS011;11727;52.134;5.052;2023-02-28T06:36:11;8.65;;;1.95;;
23115;SDS011;11727;52.134;5.052;2023-02-28T06:38:37;1.90;;;1.30;;
23115;SDS011;11727;52.134;5.052;2023-02-28T06:41:03;4.18;;;1.60;;
23115;SDS011;11727;52.134;5.052;2023-02-28T06:43:29;2.80;;;1.40;;
23115;SDS011;11727;52.134;5.052;2023-02-28T06:46:01;7.93;;;1.70;;
23115;SDS011;11727;52.134;5.052;2023-02-28T06:48:29;2.85;;;1.45;;
23115;SDS011;11727;52.134;5.052;2023-02-28T06:51:09;3.25;;;1.60;;
23115;SDS011;11727;52.134;5.052;2023-02-28T06:53:38;1.88;;;1.25;;
23115;SDS011;11727;52.134;5.052;2023-02-28T06:56:07;3.65;;;2.00;;
23115;SDS011;11727;52.134;5.052;2023-02-28T06:58:35;5.20;;;2.10;;
23115;SDS011;11727;52.134;5.052;2023-02-28T07:01:02;7.70;;;2.08;;
23115;SDS011;11727;52.134;5.052;2023-02-28T07:03:28;2.75;;;1.65;;
23115;SDS011;11727;52.134;5.052;2023-02-28T07:05:54;2.72;;;1.63;;
23115;SDS011;11727;52.134;5.052;2023-02-28T07:08:21;4.73;;;2.03;;
23115;SDS011;11727;52.134;5.052;2023-02-28T07:10:51;5.28;;;2.30;;
23115;SDS011;11727;52.134;5.052;2023-02-28T07:13:17;3.78;;;1.85;;
23115;SDS011;11727;52.134;5.052;2023-02-28T07:15:42;4.68;;;2.00;;
23115;SDS011;11727;52.134;5.052;2023-02-28T07:18:08;4.07;;;2.33;;
23115;SDS011;11727;52.134;5.052;2023-02-28T07:20:34;3.05;;;1.65;;
23115;SDS011;11727;52.134;5.052;2023-02-28T07:23:00;5.70;;;1.60;;
23115;SDS011;11727;52.134;5.052;2023-02-28T07:25:26;3.42;;;1.75;;
23115;SDS011;11727;52.134;5.052;2023-02-28T07:27:55;5.68;;;1.75;;
23115;SDS011;11727;52.134;5.052;2023-02-28T07:30:21;2.90;;;1.67;;
23115;SDS011;11727;52.134;5.052;2023-02-28T07:32:47;4.40;;;2.17;;
23115;SDS011;11727;52.134;5.052;2023-02-28T07:35:13;4.97;;;2.33;;
23115;SDS011;11727;52.134;5.052;2023-02-28T07:37:40;2.08;;;1.30;;
23115;SDS011;11727;52.134;5.052;2023-02-28T07:40:07;3.78;;;1.85;;
23115;SDS011;11727;52.134;5.052;2023-02-28T07:42:36;3.03;;;1.73;;
23115;SDS011;11727;52.134;5.052;2023-02-28T07:45:03;4.63;;;2.33;;
23115;SDS011;11727;52.134;5.052;2023-02-28T07:47:31;4.60;;;2.08;;
23115;SDS011;11727;52.134;5.052;2023-02-28T07:49:57;4.15;;;1.70;;
23115;SDS011;11727;52.134;5.052;2023-02-28T07:52:23;3.15;;;1.70;;
23115;SDS011;11727;52.134;5.052;2023-02-28T07:54:52;4.47;;;1.90;;
23115;SDS011;11727;52.134;5.052;2023-02-28T07:57:18;4.85;;;2.15;;
23115;SDS011;11727;52.134;5.052;2023-02-28T07:59:43;3.53;;;1.95;;
23115;SDS011;11727;52.134;5.052;2023-02-28T08:02:13;5.28;;;2.30;;
23115;SDS011;11727;52.134;5.052;2023-02-28T08:04:40;4.30;;;1.60;;
23115;SDS011;11727;52.134;5.052;2023-02-28T08:07:06;5.43;;;1.90;;
23115;SDS011;11727;52.134;5.052;2023-02-28T08:09:32;3.75;;;1.65;;
23115;SDS011;11727;52.134;5.052;2023-02-28T08:11:59;4.20;;;1.40;;
23115;SDS011;11727;52.134;5.052;2023-02-28T08:14:24;3.10;;;1.52;;
23115;SDS011;11727;52.134;5.052;2023-02-28T08:16:50;9.18;;;2.40;;
23115;SDS011;11727;52.134;5.052;2023-02-28T08:19:16;3.35;;;1.80;;
23115;SDS011;11727;52.134;5.052;2023-02-28T08:21:41;3.22;;;1.90;;
23115;SDS011;11727;52.134;5.052;2023-02-28T08:24:07;3.63;;;1.98;;
23115;SDS011;11727;52.134;5.052;2023-02-28T08:26:33;4.35;;;1.92;;
23115;SDS011;11727;52.134;5.052;2023-02-28T08:28:58;5.07;;;3.00;;
23115;SDS011;11727;52.134;5.052;2023-02-28T08:31:24;5.32;;;2.20;;
23115;SDS011;11727;52.134;5.052;2023-02-28T08:33:50;5.53;;;2.33;;
23115;SDS011;11727;52.134;5.052;2023-02-28T08:36:17;10.88;;;2.92;;
23115;SDS011;11727;52.134;5.052;2023-02-28T08:38:43;4.50;;;1.90;;
23115;SDS011;11727;52.134;5.052;2023-02-28T08:41:09;5.15;;;2.38;;
23115;SDS011;11727;52.134;5.052;2023-02-28T08:43:36;5.63;;;2.03;;
23115;SDS011;11727;52.134;5.052;2023-02-28T08:46:02;4.53;;;1.90;;
23115;SDS011;11727;52.134;5.052;2023-02-28T08:48:30;6.55;;;1.88;;
23115;SDS011;11727;52.134;5.052;2023-02-28T08:51:00;3.83;;;2.20;;
23115;SDS011;11727;52.134;5.052;2023-02-28T08:53:29;6.30;;;1.95;;
23115;SDS011;11727;52.134;5.052;2023-02-28T08:55:55;8.55;;;2.72;;
23115;SDS011;11727;52.134;5.052;2023-02-28T08:58:22;8.55;;;1.92;;
23115;SDS011;11727;52.134;5.052;2023-02-28T09:00:47;5.80;;;2.30;;
23115;SDS011;11727;52.134;5.052;2023-02-28T09:03:13;4.45;;;2.20;;
23115;SDS011;11727;52.134;5.052;2023-02-28T09:05:38;10.30;;;2.65;;
23115;SDS011;11727;52.134;5.052;2023-02-28T09:08:04;4.53;;;1.50;;
23115;SDS011;11727;52.134;5.052;2023-02-28T09:10:30;4.18;;;2.03;;
23115;SDS011;11727;52.134;5.052;2023-02-28T09:12:55;4.53;;;2.08;;
23115;SDS011;11727;52.134;5.052;2023-02-28T09:15:21;4.80;;;1.60;;
23115;SDS011;11727;52.134;5.052;2023-02-28T09:17:46;5.07;;;1.90;;
23115;SDS011;11727;52.134;5.052;2023-02-28T09:20:12;3.95;;;1.98;;
23115;SDS011;11727;52.134;5.052;2023-02-28T09:22:37;6.72;;;2.00;;
23115;SDS011;11727;52.134;5.052;2023-02-28T09:25:03;6.85;;;2.78;;
23115;SDS011;11727;52.134;5.052;2023-02-28T09:27:29;3.85;;;1.92;;
23115;SDS011;11727;52.134;5.052;2023-02-28T09:29:55;2.75;;;1.60;;
23115;SDS011;11727;52.134;5.052;2023-02-28T09:32:20;3.63;;;1.38;;
23115;SDS011;11727;52.134;5.052;2023-02-28T09:34:46;4.00;;;2.10;;
23115;SDS011;11727;52.134;5.052;2023-02-28T09:37:12;3.55;;;1.77;;
23115;SDS011;11727;52.134;5.052;2023-02-28T09:39:37;3.83;;;1.75;;
23115;SDS011;11727;52.134;5.052;2023-02-28T09:42:03;3.38;;;1.55;;
23115;SDS011;11727;52.134;5.052;2023-02-28T09:44:35;2.90;;;1.90;;
23115;SDS011;11727;52.134;5.052;2023-02-28T09:47:22;2.60;;;1.27;;
23115;SDS011;11727;52.134;5.052;2023-02-28T09:49:54;6.30;;;1.88;;
23115;SDS011;11727;52.134;5.052;2023-02-28T09:52:27;2.33;;;1.40;;
23115;SDS011;11727;52.134;5.052;2023-02-28T09:54:55;3.40;;;1.50;;
23115;SDS011;11727;52.134;5.052;2023-02-28T09:57:36;3.53;;;1.63;;
23115;SDS011;11727;52.134;5.052;2023-02-28T10:02:46;3.80;;;1.52;;
23115;SDS011;11727;52.134;5.052;2023-02-28T10:05:53;5.78;;;1.50;;
23115;SDS011;11727;52.134;5.052;2023-02-28T10:11:34;2.08;;;0.75;;
23115;SDS011;11727;52.134;5.052;2023-02-28T10:14:04;1.85;;;0.93;;
23115;SDS011;11727;52.134;5.052;2023-02-28T10:19:20;2.25;;;1.02;;
23115;SDS011;11727;52.134;5.052;2023-02-28T10:27:00;5.47;;;1.08;;
23115;SDS011;11727;52.134;5.052;2023-02-28T10:29:39;2.35;;;1.02;;
23115;SDS011;11727;52.134;5.052;2023-02-28T10:32:08;2.25;;;0.70;;
23115;SDS011;11727;52.134;5.052;2023-02-28T10:34:38;1.70;;;0.90;;
23115;SDS011;11727;52.134;5.052;2023-02-28T10:37:04;4.95;;;0.85;;
23115;SDS011;11727;52.134;5.052;2023-02-28T10:39:34;2.30;;;1.00;;
23115;SDS011;11727;52.134;5.052;2023-02-28T10:42:05;1.17;;;0.85;;
23115;SDS011;11727;52.134;5.052;2023-02-28T11:01:12;3.58;;;0.88;;
23115;SDS011;11727;52.134;5.052;2023-02-28T11:03:43;2.05;;;0.88;;
23115;SDS011;11727;52.134;5.052;2023-02-28T11:08:59;1.33;;;0.60;;
23115;SDS011;11727;52.134;5.052;2023-02-28T11:11:28;0.82;;;0.50;;
23115;SDS011;11727;52.134;5.052;2023-02-28T11:13:57;1.98;;;0.70;;
23115;SDS011;11727;52.134;5.052;2023-02-28T11:16:34;1.80;;;0.75;;
23115;SDS011;11727;52.134;5.052;2023-02-28T11:19:03;2.15;;;0.90;;
23115;SDS011;11727;52.134;5.052;2023-02-28T11:21:35;1.13;;;0.60;;
23115;SDS011;11727;52.134;5.052;2023-02-28T11:24:28;1.98;;;0.90;;
23115;SDS011;11727;52.134;5.052;2023-02-28T11:27:11;0.98;;;0.60;;
23115;SDS011;11727;52.134;5.052;2023-02-28T11:29:55;1.23;;;0.68;;
23115;SDS011;11727;52.134;5.052;2023-02-28T11:32:25;2.05;;;0.60;;
23115;SDS011;11727;52.134;5.052;2023-02-28T11:37:29;2.10;;;0.85;;
23115;SDS011;11727;52.134;5.052;2023-02-28T11:39:56;0.63;;;0.50;;
23115;SDS011;11727;52.134;5.052;2023-02-28T11:45:21;2.97;;;0.93;;
23115;SDS011;11727;52.134;5.052;2023-02-28T11:48:11;1.25;;;0.55;;
23115;SDS011;11727;52.134;5.052;2023-02-28T12:05:00;1.23;;;0.70;;
23115;SDS011;11727;52.134;5.052;2023-02-28T12:20:54;4.10;;;0.75;;
23115;SDS011;11727;52.134;5.052;2023-02-28T12:23:26;1.83;;;0.77;;
23115;SDS011;11727;52.134;5.052;2023-02-28T12:26:06;2.67;;;1.35;;
23115;SDS011;11727;52.134;5.052;2023-02-28T12:28:59;4.95;;;0.80;;
23115;SDS011;11727;52.134;5.052;2023-02-28T12:31:50;1.00;;;0.60;;
23115;SDS011;11727;52.134;5.052;2023-02-28T12:34:38;0.98;;;0.60;;
23115;SDS011;11727;52.134;5.052;2023-02-28T12:37:27;1.52;;;0.88;;
23115;SDS011;11727;52.134;5.052;2023-02-28T12:40:15;0.80;;;0.50;;
23115;SDS011;11727;52.134;5.052;2023-02-28T12:42:49;1.42;;;0.75;;
23115;SDS011;11727;52.134;5.052;2023-02-28T12:47:50;0.70;;;0.55;;
23115;SDS011;11727;52.134;5.052;2023-02-28T12:50:22;1.80;;;0.63;;
23115;SDS011;11727;52.134;5.052;2023-02-28T13:07:31;1.80;;;0.80;;
23115;SDS011;11727;52.134;5.052;2023-02-28T13:10:11;1.05;;;0.60;;
23115;SDS011;11727;52.134;5.052;2023-02-28T13:12:53;5.63;;;0.80;;
23115;SDS011;11727;52.134;5.052;2023-02-28T13:17:54;0.57;;;0.50;;
23115;SDS011;11727;52.134;5.052;2023-02-28T13:22:51;1.80;;;0.87;;
23115;SDS011;11727;52.134;5.052;2023-02-28T13:27:46;8.40;;;0.93;;
23115;SDS011;11727;52.134;5.052;2023-02-28T13:36:29;1.17;;;0.70;;
23115;SDS011;11727;52.134;5.052;2023-02-28T13:39:03;3.35;;;0.93;;
23115;SDS011;11727;52.134;5.052;2023-02-28T13:50:23;1.80;;;0.60;;
23115;SDS011;11727;52.134;5.052;2023-02-28T13:52:53;2.47;;;0.70;;
23115;SDS011;11727;52.134;5.052;2023-02-28T13:55:32;2.78;;;0.65;;
23115;SDS011;11727;52.134;5.052;2023-02-28T14:06:29;1.40;;;0.70;;
23115;SDS011;11727;52.134;5.052;2023-02-28T14:09:06;0.95;;;0.60;;
23115;SDS011;11727;52.134;5.052;2023-02-28T14:11:44;1.33;;;0.80;;
23115;SDS011;11727;52.134;5.052;2023-02-28T14:17:01;3.35;;;0.90;;
23115;SDS011;11727;52.134;5.052;2023-02-28T14:19:30;1.73;;;0.80;;
23115;SDS011;11727;52.134;5.052;2023-02-28T14:33:13;1.98;;;0.73;;
23115;SDS011;11727;52.134;5.052;2023-02-28T14:38:32;2.30;;;0.75;;
23115;SDS011;11727;52.134;5.052;2023-02-28T14:41:12;3.10;;;0.50;;
23115;SDS011;11727;52.134;5.052;2023-02-28T14:43:49;1.27;;;0.70;;
23115;SDS011;11727;52.134;5.052;2023-02-28T14:46:20;2.25;;;0.95;;
23115;SDS011;11727;52.134;5.052;2023-02-28T14:48:47;2.88;;;1.33;;
23115;SDS011;11727;52.134;5.052;2023-02-28T14:51:18;1.65;;;0.60;;
23115;SDS011;11727;52.134;5.052;2023-02-28T14:53:48;1.15;;;0.60;;
23115;SDS011;11727;52.134;5.052;2023-02-28T14:56:23;2.63;;;0.70;;
23115;SDS011;11727;52.134;5.052;2023-02-28T14:58:55;2.03;;;0.90;;
23115;SDS011;11727;52.134;5.052;2023-02-28T15:01:22;1.40;;;0.50;;
23115;SDS011;11727;52.134;5.052;2023-02-28T15:06:22;1.02;;;0.50;;
23115;SDS011;11727;52.134;5.052;2023-02-28T15:09:01;3.38;;;0.88;;
23115;SDS011;11727;52.134;5.052;2023-02-28T15:11:33;1.45;;;0.70;;
23115;SDS011;11727;52.134;5.052;2023-02-28T15:14:00;2.10;;;0.93;;
23115;SDS011;11727;52.134;5.052;2023-02-28T15:16:28;0.85;;;0.50;;
23115;SDS011;11727;52.134;5.052;2023-02-28T15:21:42;1.88;;;0.82;;
23115;SDS011;11727;52.134;5.052;2023-02-28T15:26:41;1.20;;;0.60;;
23115;SDS011;11727;52.134;5.052;2023-02-28T15:29:15;1.17;;;0.80;;
23115;SDS011;11727;52.134;5.052;2023-02-28T15:31:46;1.52;;;0.60;;
23115;SDS011;11727;52.134;5.052;2023-02-28T15:37:01;1.50;;;0.68;;
23115;SDS011;11727;52.134;5.052;2023-02-28T15:39:50;2.13;;;0.85;;
23115;SDS011;11727;52.134;5.052;2023-02-28T15:42:18;1.30;;;0.70;;
23115;SDS011;11727;52.134;5.052;2023-02-28T15:44:46;0.90;;;0.65;;
23115;SDS011;11727;52.134;5.052;2023-02-28T15:47:18;4.95;;;0.90;;
23115;SDS011;11727;52.134;5.052;2023-02-28T15:52:18;3.25;;;0.80;;
23115;SDS011;11727;52.134;5.052;2023-02-28T15:54:53;2.42;;;0.90;;
23115;SDS011;11727;52.134;5.052;2023-02-28T15:57:21;1.65;;;0.80;;
23115;SDS011;11727;52.134;5.052;2023-02-28T15:59:59;1.38;;;0.90;;
23115;SDS011;11727;52.134;5.052;2023-02-28T16:02:33;1.90;;;0.80;;
23115;SDS011;11727;52.134;5.052;2023-02-28T16:05:24;1.52;;;0.88;;
23115;SDS011;11727;52.134;5.052;2023-02-28T16:08:14;1.58;;;0.77;;
23115;SDS011;11727;52.134;5.052;2023-02-28T16:10:40;1.00;;;0.68;;
23115;SDS011;11727;52.134;5.052;2023-02-28T16:13:06;2.65;;;1.27;;
23115;SDS011;11727;52.134;5.052;2023-02-28T16:15:37;1.98;;;0.95;;
23115;SDS011;11727;52.134;5.052;2023-02-28T16:18:07;1.05;;;0.75;;
23115;SDS011;11727;52.134;5.052;2023-02-28T16:20:35;1.52;;;0.73;;
23115;SDS011;11727;52.134;5.052;2023-02-28T16:23:01;1.48;;;0.82;;
23115;SDS011;11727;52.134;5.052;2023-02-28T16:25:34;1.20;;;0.57;;
23115;SDS011;11727;52.134;5.052;2023-02-28T16:28:01;3.78;;;0.80;;
23115;SDS011;11727;52.134;5.052;2023-02-28T16:30:28;2.40;;;1.05;;
23115;SDS011;11727;52.134;5.052;2023-02-28T16:32:57;2.03;;;0.90;;
23115;SDS011;11727;52.134;5.052;2023-02-28T16:35:23;0.80;;;0.60;;
23115;SDS011;11727;52.134;5.052;2023-02-28T16:37:53;1.58;;;0.73;;
23115;SDS011;11727;52.134;5.052;2023-02-28T16:40:20;1.42;;;0.60;;
23115;SDS011;11727;52.134;5.052;2023-02-28T16:42:51;1.08;;;0.57;;
23115;SDS011;11727;52.134;5.052;2023-02-28T16:45:22;1.98;;;0.80;;
23115;SDS011;11727;52.134;5.052;2023-02-28T16:47:50;2.20;;;0.70;;
23115;SDS011;11727;52.134;5.052;2023-02-28T16:50:17;1.73;;;1.10;;
23115;SDS011;11727;52.134;5.052;2023-02-28T16:52:48;2.15;;;1.15;;
23115;SDS011;11727;52.134;5.052;2023-02-28T16:55:14;3.28;;;1.10;;
23115;SDS011;11727;52.134;5.052;2023-02-28T16:57:41;2.17;;;0.98;;
23115;SDS011;11727;52.134;5.052;2023-02-28T17:00:10;1.45;;;0.80;;
23115;SDS011;11727;52.134;5.052;2023-02-28T17:02:38;2.92;;;1.30;;
23115;SDS011;11727;52.134;5.052;2023-02-28T17:05:04;3.17;;;1.10;;
23115;SDS011;11727;52.134;5.052;2023-02-28T17:07:30;3.30;;;1.30;;
23115;SDS011;11727;52.134;5.052;2023-02-28T17:09:55;3.55;;;1.45;;
23115;SDS011;11727;52.134;5.052;2023-02-28T17:12:21;3.42;;;1.40;;
23115;SDS011;11727;52.134;5.052;2023-02-28T17:14:47;4.32;;;1.40;;
23115;SDS011;11727;52.134;5.052;2023-02-28T17:17:17;2.45;;;1.10;;
23115;SDS011;11727;52.134;5.052;2023-02-28T17:19:45;3.45;;;1.30;;
23115;SDS011;11727;52.134;5.052;2023-02-28T17:22:10;3.08;;;1.38;;
23115;SDS011;11727;52.134;5.052;2023-02-28T17:24:36;3.30;;;1.00;;
23115;SDS011;11727;52.134;5.052;2023-02-28T17:27:02;1.60;;;1.02;;
23115;SDS011;11727;52.134;5.052;2023-02-28T17:29:28;1.55;;;0.85;;
23115;SDS011;11727;52.134;5.052;2023-02-28T17:31:53;1.88;;;0.95;;
23115;SDS011;11727;52.134;5.052;2023-02-28T17:34:20;3.65;;;1.35;;
23115;SDS011;11727;52.134;5.052;2023-02-28T17:36:47;4.57;;;0.98;;
23115;SDS011;11727;52.134;5.052;2023-02-28T17:39:15;4.10;;;1.35;;
23115;SDS011;11727;52.134;5.052;2023-02-28T17:41:52;2.25;;;1.27;;
23115;SDS011;11727;52.134;5.052;2023-02-28T17:44:21;1.90;;;0.90;;
23115;SDS011;11727;52.134;5.052;2023-02-28T17:49:14;2.97;;;0.95;;
23115;SDS011;11727;52.134;5.052;2023-02-28T17:51:40;4.63;;;1.45;;
23115;SDS011;11727;52.134;5.052;2023-02-28T17:54:06;2.72;;;1.42;;
23115;SDS011;11727;52.134;5.052;2023-02-28T17:56:32;5.03;;;1.67;;
23115;SDS011;11727;52.134;5.052;2023-02-28T17:59:00;2.33;;;1.08;;
23115;SDS011;11727;52.134;5.052;2023-02-28T18:01:26;3.20;;;1.15;;
23115;SDS011;11727;52.134;5.052;2023-02-28T18:03:52;4.30;;;1.63;;
23115;SDS011;11727;52.134;5.052;2023-02-28T18:06:21;5.47;;;1.73;;